Time;durP1;ratioP1;P1;durP2;ratioP2;P2;SDS_P1;SDS_P2;PMS_P1;PMS_P2;Temp;Humidity;BMP_temperature;BMP_pressure;BME280_temperature;BME280_humidity;BME280_pressure;Samples;Min_cycle;Max_cycle;Signal;HPM_P1;HPM_P2
2021/12/22 00:02:05;;;;;;;36.80;10.13;;;-1.20;99.90;;;;;;4923338;29;20188;-92
2021/12/22 00:04:33;;;;;;;28.77;8.93;;;-1.20;99.90;;;;;;4923304;29;20181;-91
2021/12/22 00:06:59;;;;;;;29.33;9.90;;;-1.10;99.90;;;;;;4923140;29;20335;-92
2021/12/22 00:09:25;;;;;;;32.60;8.47;;;-1.10;99.90;;;;;;4923539;29;20230;-93
2021/12/22 00:11:51;;;;;;;21.00;9.37;;;-1.20;99.90;;;;;;4923184;29;20198;-93
2021/12/22 00:14:17;;;;;;;24.37;8.37;;;-1.20;99.90;;;;;;4923242;29;20191;-91
2021/12/22 00:16:43;;;;;;;26.23;8.73;;;-1.20;99.90;;;;;;4922615;29;20229;-93
2021/12/22 00:19:09;;;;;;;30.53;7.93;;;-1.20;99.90;;;;;;4922745;29;20189;-92
2021/12/22 00:21:34;;;;;;;42.60;7.83;;;-1.10;99.90;;;;;;4923377;29;20181;-92
2021/12/22 00:24:01;;;;;;;50.23;8.90;;;-1.20;99.90;;;;;;4923109;29;20186;-94
2021/12/22 00:26:27;;;;;;;26.13;7.93;;;-1.20;99.90;;;;;;4938740;29;20208;-93
2021/12/22 00:28:53;;;;;;;21.80;7.87;;;-1.30;99.90;;;;;;4922805;29;20185;-94
2021/12/22 00:31:21;;;;;;;38.13;8.17;;;-1.30;99.90;;;;;;4922666;29;20200;-93
2021/12/22 00:33:49;;;;;;;39.17;9.50;;;-1.30;99.90;;;;;;4922676;29;20565;-93
2021/12/22 00:36:21;;;;;;;18.07;7.87;;;-1.30;99.90;;;;;;4922349;29;20225;-92
2021/12/22 00:38:48;;;;;;;28.30;8.13;;;-1.30;99.90;;;;;;4922511;29;20180;-93
2021/12/22 00:41:14;;;;;;;36.63;8.97;;;-1.30;99.90;;;;;;4922563;29;20179;-91
2021/12/22 00:43:40;;;;;;;18.67;7.60;;;-1.30;99.90;;;;;;4922229;29;20191;-93
2021/12/22 00:46:06;;;;;;;31.43;9.20;;;-1.30;99.90;;;;;;4922435;29;20211;-92
2021/12/22 00:48:33;;;;;;;44.77;9.77;;;-1.30;99.90;;;;;;4921866;29;20189;-91
2021/12/22 00:51:00;;;;;;;41.43;9.33;;;-1.30;99.90;;;;;;4922380;29;20193;-92
2021/12/22 00:53:27;;;;;;;29.57;8.63;;;-1.30;99.90;;;;;;4922379;29;20180;-92
2021/12/22 00:55:53;;;;;;;34.83;7.70;;;-1.30;99.90;;;;;;4922032;29;20235;-93
2021/12/22 00:58:20;;;;;;;27.40;8.63;;;-1.30;99.90;;;;;;4922444;29;20180;-93
2021/12/22 01:00:48;;;;;;;21.33;7.33;;;-1.30;99.90;;;;;;4922483;29;20182;-93
2021/12/22 01:03:16;;;;;;;28.57;6.50;;;-1.40;99.90;;;;;;4938325;29;20213;-92
2021/12/22 01:05:42;;;;;;;26.63;6.93;;;-1.40;99.90;;;;;;4922223;29;20184;-93
2021/12/22 01:08:08;;;;;;;24.23;6.53;;;-1.50;99.90;;;;;;4922109;29;20209;-92
2021/12/22 01:10:35;;;;;;;16.07;6.53;;;-1.50;99.90;;;;;;4922362;29;20191;-92
2021/12/22 01:13:02;;;;;;;24.97;6.13;;;-1.50;99.90;;;;;;4922563;29;20187;-90
2021/12/22 01:15:30;;;;;;;23.40;5.17;;;-1.50;99.90;;;;;;4938940;29;20254;-95
2021/12/22 01:18:04;;;;;;;30.63;6.57;;;-1.50;99.90;;;;;;4922109;29;20367;-93
2021/12/22 01:20:49;;;;;;;24.63;7.20;;;-1.60;99.90;;;;;;4921841;29;20677;-91
2021/12/22 01:23:15;;;;;;;20.30;6.93;;;-1.60;99.90;;;;;;4908518;29;20188;-93
2021/12/22 01:25:44;;;;;;;28.53;6.77;;;-1.60;99.90;;;;;;4922104;29;20641;-93
2021/12/22 01:28:11;;;;;;;28.20;6.90;;;-1.60;99.90;;;;;;4921596;29;20365;-91
2021/12/22 01:30:42;;;;;;;20.33;6.33;;;-1.60;99.90;;;;;;4921653;29;20375;-94
2021/12/22 01:33:09;;;;;;;19.43;7.40;;;-1.60;99.90;;;;;;4921633;29;20671;-92
2021/12/22 01:35:35;;;;;;;30.87;7.20;;;-1.60;99.90;;;;;;4921401;29;20190;-93
2021/12/22 01:38:02;;;;;;;24.00;7.57;;;-1.60;99.90;;;;;;4921463;29;20744;-92
2021/12/22 01:40:28;;;;;;;18.83;6.60;;;-1.60;99.90;;;;;;4921705;29;20209;-91
2021/12/22 01:42:55;;;;;;;25.97;8.03;;;-1.60;99.90;;;;;;4921276;29;20652;-92
2021/12/22 01:51:54;;;;;;;28.43;8.20;;;-1.60;99.90;;;;;;4938390;29;20175;-93
2021/12/22 01:54:21;;;;;;;23.50;8.60;;;-1.50;99.90;;;;;;4921480;29;20188;-92
2021/12/22 01:56:52;;;;;;;29.27;8.37;;;-1.50;99.90;;;;;;4921082;29;20224;-93
2021/12/22 01:59:21;;;;;;;34.77;8.60;;;-1.50;99.90;;;;;;4920781;29;20250;-93
2021/12/22 02:01:48;;;;;;;39.00;7.93;;;-1.50;99.90;;;;;;4920531;29;20231;-92
2021/12/22 02:04:16;;;;;;;21.00;7.20;;;-1.50;99.90;;;;;;4938106;29;20575;-92
2021/12/22 02:06:44;;;;;;;38.57;8.13;;;-1.50;99.90;;;;;;4920528;29;20240;-91
2021/12/22 02:09:12;;;;;;;25.20;7.33;;;-1.60;99.90;;;;;;4920930;29;20200;-92
2021/12/22 02:11:38;;;;;;;23.80;7.90;;;-1.60;99.90;;;;;;4920805;29;20222;-92
2021/12/22 02:14:06;;;;;;;65.07;9.30;;;-1.50;99.90;;;;;;4920699;29;20591;-92
2021/12/22 02:16:37;;;;;;;37.70;7.60;;;-1.50;99.90;;;;;;4920673;29;20229;-91
2021/12/22 02:19:05;;;;;;;28.03;7.87;;;-1.60;99.90;;;;;;4920631;29;20256;-91
2021/12/22 02:21:38;;;;;;;30.37;7.07;;;-1.60;99.90;;;;;;4920818;29;20219;-91
2021/12/22 02:24:04;;;;;;;43.00;7.20;;;-1.60;99.90;;;;;;4920579;29;20188;-92
2021/12/22 02:29:05;;;;;;;14.20;6.30;;;-1.70;99.90;;;;;;4937563;29;20175;-93
2021/12/22 02:31:38;;;;;;;17.97;6.47;;;-1.60;99.90;;;;;;4920694;29;20528;-92
2021/12/22 02:34:05;;;;;;;14.70;6.70;;;-1.70;99.90;;;;;;4920441;29;20198;-91
2021/12/22 02:36:38;;;;;;;19.07;7.03;;;-1.70;99.90;;;;;;4936220;29;20222;-91
2021/12/22 02:39:04;;;;;;;19.97;7.97;;;-1.70;99.90;;;;;;4920332;29;20183;-92
2021/12/22 02:41:32;;;;;;;16.63;6.77;;;-1.70;99.90;;;;;;4920307;29;20660;-93
2021/12/22 02:43:59;;;;;;;24.20;7.80;;;-1.70;99.90;;;;;;4920154;29;20186;-91
2021/12/22 02:46:32;;;;;;;20.73;8.00;;;-1.70;99.90;;;;;;4920206;29;20267;-92
2021/12/22 02:49:01;;;;;;;17.97;7.73;;;-1.80;99.90;;;;;;4920035;29;20195;-93
2021/12/22 02:51:28;;;;;;;18.80;7.07;;;-1.70;99.90;;;;;;4920197;29;20187;-91
2021/12/22 02:54:19;;;;;;;27.17;7.73;;;-1.80;99.90;;;;;;4935946;29;20196;-90
2021/12/22 02:59:35;;;;;;;27.33;7.30;;;-1.80;99.90;;;;;;4937167;29;20265;-92
2021/12/22 03:02:28;;;;;;;23.27;7.37;;;-1.80;99.90;;;;;;4936255;29;20190;-91
2021/12/22 03:04:55;;;;;;;26.50;7.43;;;-1.80;99.90;;;;;;4920003;29;20222;-90
2021/12/22 03:07:25;;;;;;;19.00;7.20;;;-1.80;99.90;;;;;;4919685;29;20371;-91
2021/12/22 03:09:59;;;;;;;28.17;7.50;;;-1.80;99.90;;;;;;4920043;29;20265;-91
2021/12/22 03:12:27;;;;;;;18.37;8.00;;;-1.80;99.90;;;;;;4924457;29;20185;-94
2021/12/22 03:14:53;;;;;;;28.80;9.10;;;-1.80;99.90;;;;;;4926191;29;20190;-93
2021/12/22 03:17:19;;;;;;;21.33;7.40;;;-1.80;99.90;;;;;;4926398;29;20822;-91
2021/12/22 03:19:45;;;;;;;19.23;8.03;;;-1.80;99.90;;;;;;4926719;29;20207;-91
2021/12/22 03:22:12;;;;;;;42.77;9.17;;;-1.80;99.90;;;;;;4926350;29;20551;-90
2021/12/22 03:24:40;;;;;;;43.10;8.87;;;-1.80;99.90;;;;;;4926650;29;20215;-93
2021/12/22 03:27:08;;;;;;;22.43;7.90;;;-1.80;99.90;;;;;;4941950;29;20303;-91
2021/12/22 03:29:36;;;;;;;26.00;8.77;;;-1.80;99.90;;;;;;4926372;29;20192;-91
2021/12/22 03:32:03;;;;;;;15.93;8.33;;;-1.80;99.90;;;;;;4926925;29;20190;-91
2021/12/22 03:34:30;;;;;;;26.53;9.23;;;-1.80;99.90;;;;;;4926123;29;20198;-91
2021/12/22 03:36:56;;;;;;;23.40;8.53;;;-1.80;99.90;;;;;;4926254;29;20583;-93
2021/12/22 03:39:22;;;;;;;20.00;8.73;;;-1.80;99.90;;;;;;4926241;29;20182;-90
2021/12/22 03:41:48;;;;;;;20.53;8.60;;;-1.70;99.90;;;;;;4925920;29;20547;-90
2021/12/22 03:44:16;;;;;;;24.03;10.00;;;-1.70;99.90;;;;;;4925826;29;20225;-92
2021/12/22 03:46:42;;;;;;;15.27;8.80;;;-1.70;99.90;;;;;;4925589;29;20239;-92
2021/12/22 03:49:10;;;;;;;26.90;10.03;;;-1.80;99.90;;;;;;4925984;29;20184;-93
2021/12/22 03:51:36;;;;;;;32.73;10.40;;;-1.70;99.90;;;;;;4926148;29;20186;-93
2021/12/22 03:54:08;;;;;;;19.03;8.67;;;-1.70;99.90;;;;;;4925943;29;20188;-93
2021/12/22 03:56:34;;;;;;;20.93;9.80;;;-1.70;99.90;;;;;;4906346;29;20232;-93
2021/12/22 03:59:00;;;;;;;26.90;8.80;;;-1.70;99.90;;;;;;4925968;29;20188;-91
2021/12/22 04:01:28;;;;;;;34.50;9.73;;;-1.80;99.90;;;;;;4926119;29;20186;-93
2021/12/22 04:03:59;;;;;;;30.10;10.03;;;-1.80;99.90;;;;;;4926132;29;20528;-92
2021/12/22 04:06:25;;;;;;;18.70;9.23;;;-1.80;99.90;;;;;;4925311;29;20281;-91
2021/12/22 04:08:50;;;;;;;68.93;9.70;;;-1.80;99.90;;;;;;4925830;29;20192;-93
2021/12/22 04:11:16;;;;;;;34.20;9.60;;;-1.80;99.90;;;;;;4941605;29;20552;-91
2021/12/22 04:13:42;;;;;;;39.97;8.80;;;-1.80;99.90;;;;;;4925560;29;20275;-92
2021/12/22 04:16:08;;;;;;;35.70;11.03;;;-1.80;99.90;;;;;;4925641;29;20281;-92
2021/12/22 04:18:35;;;;;;;44.60;10.17;;;-1.90;99.90;;;;;;4925750;29;20183;-92
2021/12/22 04:21:01;;;;;;;27.60;10.07;;;-1.80;99.90;;;;;;4924488;29;20192;-92
2021/12/22 04:23:26;;;;;;;77.13;11.33;;;-1.80;99.90;;;;;;4923018;29;20709;-91
2021/12/22 04:25:53;;;;;;;23.87;10.10;;;-1.80;99.90;;;;;;4922438;29;20190;-91
2021/12/22 04:28:19;;;;;;;34.17;10.73;;;-1.80;99.90;;;;;;4922738;29;20308;-92
2021/12/22 04:30:49;;;;;;;31.77;10.77;;;-1.80;99.90;;;;;;4938663;29;20640;-92
2021/12/22 04:33:19;;;;;;;31.90;10.77;;;-1.80;99.90;;;;;;4922443;29;20186;-92
2021/12/22 04:35:45;;;;;;;43.13;10.83;;;-1.80;99.90;;;;;;4922191;29;20274;-93
2021/12/22 04:38:11;;;;;;;33.03;9.60;;;-1.80;99.90;;;;;;4922824;29;20178;-93
2021/12/22 04:40:39;;;;;;;22.23;9.37;;;-1.80;99.90;;;;;;4922418;29;20187;-92
2021/12/22 04:43:05;;;;;;;30.50;9.97;;;-1.80;99.90;;;;;;4922872;29;20664;-92
2021/12/22 04:45:31;;;;;;;29.10;8.63;;;-1.80;99.90;;;;;;4922333;29;20188;-91
2021/12/22 04:47:57;;;;;;;20.17;8.90;;;-1.80;99.90;;;;;;4922633;29;20290;-92
2021/12/22 04:50:23;;;;;;;29.70;8.93;;;-1.80;99.90;;;;;;4922263;29;20278;-91
2021/12/22 04:52:58;;;;;;;17.73;8.70;;;-1.80;99.90;;;;;;4922097;29;20276;-92
2021/12/22 04:55:26;;;;;;;33.17;8.80;;;-1.80;99.90;;;;;;4922178;29;20194;-90
2021/12/22 04:57:56;;;;;;;37.80;7.90;;;-1.80;99.90;;;;;;4921823;29;20256;-90
2021/12/22 05:00:24;;;;;;;19.00;8.20;;;-1.90;99.90;;;;;;4922014;29;20183;-91
2021/12/22 05:02:51;;;;;;;32.07;8.50;;;-1.90;99.90;;;;;;4922001;29;20183;-91
2021/12/22 05:05:20;;;;;;;28.07;8.73;;;-1.80;99.90;;;;;;4921991;29;20218;-89
2021/12/22 05:07:47;;;;;;;21.60;7.87;;;-1.90;99.90;;;;;;4921730;29;20235;-92
2021/12/22 05:10:15;;;;;;;22.27;9.33;;;-1.90;99.90;;;;;;4921633;29;20187;-90
2021/12/22 05:12:42;;;;;;;28.73;8.27;;;-1.90;99.90;;;;;;4921634;29;20212;-92
2021/12/22 05:15:08;;;;;;;37.07;8.73;;;-1.90;99.90;;;;;;4921850;29;20278;-90
2021/12/22 05:20:11;;;;;;;64.10;8.17;;;-2.00;99.90;;;;;;4938156;29;20291;-91
2021/12/22 05:22:36;;;;;;;40.43;7.23;;;-2.10;99.90;;;;;;4921722;29;20186;-91
2021/12/22 05:25:07;;;;;;;24.70;7.53;;;-2.20;99.90;;;;;;4921500;29;20318;-91
2021/12/22 05:27:34;;;;;;;56.53;8.23;;;-2.10;99.90;;;;;;4937332;29;20213;-91
2021/12/22 05:30:01;;;;;;;44.17;8.63;;;-2.10;99.90;;;;;;4921557;29;20272;-91
2021/12/22 05:32:32;;;;;;;67.20;9.50;;;-2.20;99.90;;;;;;4937398;29;20182;-90
2021/12/22 05:34:59;;;;;;;17.40;7.47;;;-2.20;99.90;;;;;;4937350;29;20190;-93
2021/12/22 05:37:26;;;;;;;36.47;8.03;;;-2.20;99.90;;;;;;4921210;29;20221;-94
2021/12/22 05:39:52;;;;;;;39.10;8.20;;;-2.20;99.90;;;;;;4934440;29;20191;-93
2021/12/22 05:42:19;;;;;;;67.93;8.00;;;-2.20;99.90;;;;;;4902240;29;20197;-91
2021/12/22 05:44:45;;;;;;;25.57;7.33;;;-2.20;99.90;;;;;;4902120;29;20180;-90
2021/12/22 05:47:11;;;;;;;28.17;6.83;;;-2.20;99.90;;;;;;4933674;29;20244;-93
2021/12/22 05:49:37;;;;;;;20.43;7.00;;;-2.20;99.90;;;;;;4902115;29;20177;-91
2021/12/22 05:52:05;;;;;;;11.90;6.33;;;-2.10;99.90;;;;;;4901575;29;20191;-91
2021/12/22 05:54:31;;;;;;;18.20;6.43;;;-2.10;99.90;;;;;;4902416;29;20579;-89
2021/12/22 05:56:56;;;;;;;15.93;6.30;;;-2.00;99.90;;;;;;4902062;29;20227;-92
2021/12/22 05:59:22;;;;;;;14.60;7.03;;;-2.10;99.90;;;;;;4901947;29;20237;-90
2021/12/22 06:01:48;;;;;;;17.23;7.03;;;-2.10;99.90;;;;;;4901868;29;20179;-90
2021/12/22 06:04:15;;;;;;;18.47;6.60;;;-2.20;99.90;;;;;;4901804;29;20266;-91
2021/12/22 06:06:42;;;;;;;23.20;7.80;;;-2.10;99.90;;;;;;4901400;29;20270;-89
2021/12/22 06:09:09;;;;;;;13.60;6.33;;;-2.10;99.90;;;;;;4917660;29;20579;-92
2021/12/22 06:11:34;;;;;;;23.93;5.57;;;-2.10;99.90;;;;;;4902112;29;20187;-90
2021/12/22 06:14:00;;;;;;;12.30;5.63;;;-2.10;99.90;;;;;;4901753;29;20185;-89
2021/12/22 06:16:29;;;;;;;16.27;6.10;;;-2.10;99.90;;;;;;4917244;29;20222;-89
2021/12/22 06:19:02;;;;;;;9.77;5.40;;;-2.10;99.90;;;;;;4917545;29;20231;-92
2021/12/22 06:21:29;;;;;;;14.57;5.60;;;-2.10;99.90;;;;;;4917380;29;20228;-91
2021/12/22 06:23:55;;;;;;;9.07;5.67;;;-2.10;99.90;;;;;;4917410;29;20186;-91
2021/12/22 06:26:22;;;;;;;11.17;6.03;;;-2.10;99.90;;;;;;4917388;29;20208;-90
2021/12/22 06:28:48;;;;;;;8.60;5.37;;;-2.10;99.90;;;;;;4917198;29;20180;-92
2021/12/22 06:31:17;;;;;;;12.83;6.57;;;-2.10;99.90;;;;;;4901397;29;20198;-90
2021/12/22 06:34:04;;;;;;;11.47;6.10;;;-2.20;99.90;;;;;;4901451;29;20186;-90
2021/12/22 06:36:31;;;;;;;11.87;5.57;;;-2.20;99.90;;;;;;4906656;29;20276;-90
2021/12/22 06:38:58;;;;;;;23.60;6.73;;;-2.20;99.90;;;;;;4899986;29;20277;-92
2021/12/22 06:41:25;;;;;;;19.33;6.70;;;-2.20;99.90;;;;;;4900720;29;20652;-91
2021/12/22 06:43:50;;;;;;;18.80;7.40;;;-2.20;99.90;;;;;;4910747;29;20629;-90
2021/12/22 06:46:17;;;;;;;23.43;7.90;;;-2.20;99.90;;;;;;4933688;29;20238;-90
2021/12/22 06:48:42;;;;;;;21.07;7.77;;;-2.20;99.90;;;;;;4917407;29;20179;-91
2021/12/22 06:51:09;;;;;;;15.77;7.27;;;-2.20;99.90;;;;;;4914660;29;20273;-91
2021/12/22 06:53:37;;;;;;;17.57;6.80;;;-2.10;99.90;;;;;;4918999;29;20192;-90
2021/12/22 06:56:04;;;;;;;13.67;6.90;;;-2.10;99.90;;;;;;4919174;29;20193;-91
2021/12/22 06:58:30;;;;;;;16.47;8.63;;;-2.10;99.90;;;;;;4919537;29;20182;-92
2021/12/22 07:00:57;;;;;;;13.67;7.50;;;-2.10;99.90;;;;;;4919633;29;20207;-92
2021/12/22 07:03:23;;;;;;;29.10;9.10;;;-2.10;99.90;;;;;;4920087;29;20717;-92
2021/12/22 07:05:49;;;;;;;19.47;9.33;;;-2.10;99.90;;;;;;4919523;29;20675;-91
2021/12/22 07:08:15;;;;;;;19.83;8.63;;;-2.20;99.90;;;;;;4935818;29;20204;-93
2021/12/22 07:10:41;;;;;;;19.70;9.20;;;-2.20;99.90;;;;;;4920139;29;20189;-91
2021/12/22 07:13:07;;;;;;;27.53;8.77;;;-2.20;99.90;;;;;;4919737;29;20211;-90
2021/12/22 07:15:33;;;;;;;31.67;9.40;;;-2.20;99.90;;;;;;4919976;29;20322;-91
2021/12/22 07:18:01;;;;;;;24.10;8.63;;;-2.30;99.90;;;;;;4919652;29;20229;-91
2021/12/22 07:20:28;;;;;;;30.03;9.27;;;-2.30;99.90;;;;;;4919365;29;20211;-92
2021/12/22 07:22:54;;;;;;;20.50;9.40;;;-2.20;99.90;;;;;;4919614;29;20174;-93
2021/12/22 07:25:24;;;;;;;29.33;9.50;;;-2.30;99.90;;;;;;4935373;29;20187;-91
2021/12/22 07:27:51;;;;;;;21.07;8.23;;;-2.30;99.90;;;;;;4935101;29;20214;-92
2021/12/22 07:30:16;;;;;;;23.23;9.57;;;-2.30;99.90;;;;;;4935522;29;20209;-90
2021/12/22 07:32:43;;;;;;;20.23;9.83;;;-2.30;99.90;;;;;;4918089;29;20224;-90
2021/12/22 07:35:34;;;;;;;21.90;8.97;;;-2.30;99.90;;;;;;4919452;29;20241;-90
2021/12/22 07:38:31;;;;;;;24.27;9.97;;;-2.30;99.90;;;;;;4919361;29;20222;-91
2021/12/22 07:41:01;;;;;;;24.73;10.87;;;-2.40;99.90;;;;;;4915420;29;20194;-92
2021/12/22 07:43:28;;;;;;;19.90;9.57;;;-2.40;99.90;;;;;;4900447;29;20187;-91
2021/12/22 07:45:56;;;;;;;21.57;9.83;;;-2.40;99.90;;;;;;4900005;29;20194;-90
2021/12/22 07:48:22;;;;;;;22.43;10.43;;;-2.40;99.90;;;;;;4900007;29;20680;-92
2021/12/22 07:50:48;;;;;;;22.03;10.23;;;-2.40;99.90;;;;;;4900702;29;20197;-91
2021/12/22 07:53:14;;;;;;;25.93;12.13;;;-2.30;99.90;;;;;;4900808;29;20187;-90
2021/12/22 07:55:41;;;;;;;29.30;9.80;;;-2.30;99.90;;;;;;4900337;29;20183;-91
2021/12/22 07:58:07;;;;;;;33.60;10.70;;;-2.30;99.90;;;;;;4900666;29;20219;-91
2021/12/22 08:00:35;;;;;;;23.10;9.60;;;-2.40;99.90;;;;;;4903609;29;20536;-92
2021/12/22 08:03:01;;;;;;;26.03;11.57;;;-2.30;99.90;;;;;;4903918;29;20175;-91
2021/12/22 08:05:27;;;;;;;45.13;11.10;;;-2.30;99.90;;;;;;4904432;29;20190;-91
2021/12/22 08:07:56;;;;;;;26.37;10.73;;;-2.40;99.90;;;;;;4903345;29;20579;-89
2021/12/22 08:10:23;;;;;;;31.77;10.90;;;-2.30;99.90;;;;;;4919693;29;20210;-90
2021/12/22 08:12:50;;;;;;;35.93;11.87;;;-2.30;99.90;;;;;;4917586;29;20655;-91
2021/12/22 08:15:15;;;;;;;22.43;10.67;;;-2.30;99.90;;;;;;4921979;29;20230;-89
2021/12/22 08:17:44;;;;;;;19.83;11.17;;;-2.30;99.90;;;;;;4922313;29;20222;-89
2021/12/22 08:20:11;;;;;;;26.83;12.17;;;-2.20;99.90;;;;;;4922336;29;20222;-89
2021/12/22 08:22:38;;;;;;;25.20;11.47;;;-2.20;99.90;;;;;;4938497;29;20190;-90
2021/12/22 08:25:06;;;;;;;27.63;12.83;;;-2.30;99.90;;;;;;4938313;29;20268;-90
2021/12/22 08:27:34;;;;;;;28.73;12.53;;;-2.20;99.90;;;;;;4925089;29;20215;-89
2021/12/22 08:29:59;;;;;;;39.70;12.13;;;-2.20;99.90;;;;;;4922423;29;20230;-91
2021/12/22 08:32:25;;;;;;;31.33;13.13;;;-2.20;99.90;;;;;;4938407;29;20197;-90
2021/12/22 08:34:55;;;;;;;25.93;13.23;;;-2.20;99.90;;;;;;4938255;29;20230;-90
2021/12/22 08:40:11;;;;;;;32.60;13.33;;;-2.10;99.90;;;;;;4939128;29;20197;-89
2021/12/22 08:42:37;;;;;;;24.93;12.43;;;-2.00;99.90;;;;;;4922289;29;20270;-91
2021/12/22 08:45:04;;;;;;;24.20;12.40;;;-2.00;99.90;;;;;;4922180;29;20258;-90
2021/12/22 08:47:31;;;;;;;24.10;11.83;;;-2.00;99.90;;;;;;4921522;29;20216;-91
2021/12/22 08:50:03;;;;;;;33.90;12.10;;;-1.90;99.90;;;;;;4939345;29;20250;-89
2021/12/22 08:52:29;;;;;;;26.60;12.93;;;-2.00;99.90;;;;;;4922207;29;20213;-90
2021/12/22 08:54:55;;;;;;;25.40;12.73;;;-2.00;99.90;;;;;;4921452;29;20187;-91
2021/12/22 08:57:22;;;;;;;25.63;12.73;;;-2.00;99.90;;;;;;4922257;29;20292;-91
2021/12/22 08:59:48;;;;;;;33.37;12.67;;;-2.10;99.90;;;;;;4927175;29;20610;-91
2021/12/22 09:02:14;;;;;;;31.30;13.47;;;-2.10;99.90;;;;;;4903008;29;20188;-90
2021/12/22 09:04:40;;;;;;;25.50;13.53;;;-2.20;99.90;;;;;;4902951;29;20184;-89
2021/12/22 09:07:06;;;;;;;31.37;13.97;;;-2.10;99.90;;;;;;4890542;29;20257;-91
2021/12/22 09:09:33;;;;;;;34.03;13.03;;;-2.10;99.90;;;;;;4899248;29;20321;-89
2021/12/22 09:11:59;;;;;;;27.13;13.17;;;-2.00;99.90;;;;;;4899690;29;20184;-90
2021/12/22 09:14:25;;;;;;;33.97;12.97;;;-1.90;99.90;;;;;;4911420;29;20186;-90
2021/12/22 09:16:52;;;;;;;36.27;13.97;;;-1.90;99.90;;;;;;4902768;29;20238;-90
2021/12/22 09:19:19;;;;;;;30.13;12.47;;;-2.00;99.90;;;;;;4902891;29;20183;-90
2021/12/22 09:21:46;;;;;;;32.00;13.17;;;-1.90;99.90;;;;;;4918515;29;20238;-89
2021/12/22 09:24:12;;;;;;;32.67;13.67;;;-2.00;99.90;;;;;;4899467;29;20184;-89
2021/12/22 09:26:38;;;;;;;29.53;14.30;;;-1.90;99.90;;;;;;4900832;29;20230;-90
2021/12/22 09:29:05;;;;;;;40.73;14.23;;;-1.90;99.90;;;;;;4918111;29;20198;-91
2021/12/22 09:31:32;;;;;;;36.27;14.43;;;-1.90;99.90;;;;;;4902364;29;20686;-89
2021/12/22 09:33:58;;;;;;;29.40;14.03;;;-1.90;99.90;;;;;;4902392;29;20179;-90
2021/12/22 09:36:24;;;;;;;34.40;14.60;;;-1.90;99.90;;;;;;4917834;29;20314;-91
2021/12/22 09:38:50;;;;;;;34.50;14.47;;;-1.90;99.90;;;;;;4917938;29;20222;-91
2021/12/22 09:41:16;;;;;;;63.97;16.03;;;-1.90;99.90;;;;;;4902066;29;20199;-91
2021/12/22 09:43:43;;;;;;;50.27;16.60;;;-1.90;99.90;;;;;;4901930;29;20179;-93
2021/12/22 09:46:14;;;;;;;49.10;16.17;;;-1.90;99.90;;;;;;4898965;29;20216;-93
2021/12/22 09:48:50;;;;;;;44.47;16.77;;;-1.90;99.90;;;;;;4883352;29;20638;-91
2021/12/22 09:53:53;;;;;;;40.33;18.37;;;-1.80;99.90;;;;;;4900329;29;20225;-91
2021/12/22 09:56:22;;;;;;;39.83;17.87;;;-1.80;99.90;;;;;;4884338;29;20220;-92
2021/12/22 09:58:49;;;;;;;37.27;17.43;;;-1.80;99.90;;;;;;4902116;29;20192;-93
2021/12/22 10:01:23;;;;;;;39.47;17.73;;;-1.70;99.90;;;;;;4902454;29;20197;-90
2021/12/22 10:03:54;;;;;;;40.37;17.60;;;-1.70;99.90;;;;;;4917979;29;20188;-91
2021/12/22 10:06:20;;;;;;;42.57;17.93;;;-1.70;99.90;;;;;;4923494;29;20720;-90
2021/12/22 10:09:00;;;;;;;45.73;17.83;;;-1.70;99.90;;;;;;4936559;29;20188;-90
2021/12/22 10:11:28;;;;;;;55.27;17.93;;;-1.60;99.90;;;;;;4920804;29;20552;-91
2021/12/22 10:13:54;;;;;;;40.80;17.63;;;-1.60;99.90;;;;;;4920723;29;20247;-91
2021/12/22 10:16:25;;;;;;;40.90;17.80;;;-1.60;99.90;;;;;;4920688;29;20220;-91
2021/12/22 10:19:10;;;;;;;34.63;17.17;;;-1.50;99.90;;;;;;4920497;29;20187;-90
2021/12/22 10:21:54;;;;;;;42.57;18.07;;;-1.50;99.90;;;;;;4919817;29;20660;-91
2021/12/22 10:24:46;;;;;;;45.70;17.33;;;-1.50;99.90;;;;;;4937595;29;20215;-91
2021/12/22 10:27:24;;;;;;;41.37;16.77;;;-1.50;99.90;;;;;;4917288;29;20564;-91
2021/12/22 10:29:50;;;;;;;44.73;18.53;;;-1.50;99.90;;;;;;4917206;29;20233;-89
2021/12/22 10:32:17;;;;;;;37.30;17.30;;;-1.50;99.90;;;;;;4921924;29;20200;-90
2021/12/22 10:35:02;;;;;;;40.63;17.00;;;-1.50;99.90;;;;;;4920237;29;20635;-91
2021/12/22 10:37:35;;;;;;;44.07;18.07;;;-1.50;99.90;;;;;;4919930;29;20224;-91
2021/12/22 10:40:01;;;;;;;38.07;18.03;;;-1.50;99.90;;;;;;4920152;29;20285;-91
2021/12/22 10:42:40;;;;;;;42.57;17.63;;;-1.50;99.90;;;;;;4920182;29;20181;-91
2021/12/22 10:45:14;;;;;;;38.37;18.30;;;-1.40;99.90;;;;;;4920103;29;20198;-91
2021/12/22 10:50:41;;;;;;;42.30;18.23;;;-1.40;99.90;;;;;;4937499;29;20339;-91
2021/12/22 10:53:09;;;;;;;41.10;17.70;;;-1.40;99.90;;;;;;4920129;29;20184;-93
2021/12/22 10:55:45;;;;;;;40.77;18.93;;;-1.40;99.90;;;;;;4935910;29;20625;-93
2021/12/22 10:58:34;;;;;;;42.33;18.63;;;-1.30;99.90;;;;;;4919974;29;20204;-92
2021/12/22 11:01:12;;;;;;;39.23;18.93;;;-1.30;99.90;;;;;;4935616;29;20187;-91
2021/12/22 11:03:47;;;;;;;45.33;19.20;;;-1.40;99.90;;;;;;4935909;29;20678;-91
2021/12/22 11:06:29;;;;;;;41.37;19.17;;;-1.40;99.90;;;;;;4935388;29;20230;-93
2021/12/22 11:09:16;;;;;;;38.23;17.33;;;-1.40;99.90;;;;;;4931547;29;20281;-93
2021/12/22 11:11:57;;;;;;;35.40;17.03;;;-1.30;99.90;;;;;;4916606;29;20230;-92
2021/12/22 11:14:30;;;;;;;37.63;17.53;;;-1.20;99.90;;;;;;4919896;29;20191;-93
2021/12/22 11:17:04;;;;;;;44.20;17.77;;;-1.30;99.90;;;;;;4919740;29;20215;-93
2021/12/22 11:20:04;;;;;;;39.00;18.97;;;-1.20;99.90;;;;;;4919911;29;20202;-94
2021/12/22 11:22:40;;;;;;;41.63;18.23;;;-1.20;99.90;;;;;;4919164;29;20280;-92
2021/12/22 11:25:11;;;;;;;40.10;18.67;;;-1.20;99.90;;;;;;4919339;29;20193;-94
2021/12/22 11:27:39;;;;;;;45.83;19.43;;;-1.10;99.90;;;;;;4919512;29;20221;-92
2021/12/22 11:30:26;;;;;;;35.47;17.77;;;-1.10;99.90;;;;;;4920447;29;20185;-92
2021/12/22 11:33:01;;;;;;;39.90;18.27;;;-1.00;99.90;;;;;;4937917;29;20235;-94
2021/12/22 11:35:33;;;;;;;40.47;18.23;;;-1.00;99.90;;;;;;4924237;29;20663;-93
2021/12/22 11:38:12;;;;;;;42.17;17.90;;;-1.00;99.90;;;;;;4923957;29;20251;-92
2021/12/22 11:40:55;;;;;;;40.13;19.00;;;-1.00;99.90;;;;;;4923659;29;20181;-93
2021/12/22 11:43:30;;;;;;;38.97;17.50;;;-1.10;99.90;;;;;;4922594;29;20672;-92
2021/12/22 11:46:32;;;;;;;36.20;17.70;;;-1.10;99.90;;;;;;4923973;29;20276;-92
2021/12/22 11:49:10;;;;;;;38.13;17.67;;;-1.00;99.90;;;;;;4923616;29;20189;-92
2021/12/22 11:51:37;;;;;;;44.37;19.00;;;-1.00;99.90;;;;;;4923354;29;20201;-93
2021/12/22 11:54:09;;;;;;;37.37;17.80;;;-1.00;99.90;;;;;;4939245;29;20189;-92
2021/12/22 11:56:56;;;;;;;40.20;18.47;;;-1.00;99.90;;;;;;4939238;29;20694;-92
2021/12/22 11:59:40;;;;;;;39.13;18.20;;;-1.00;99.90;;;;;;4923229;29;20185;-92
2021/12/22 12:02:46;;;;;;;37.17;18.57;;;-1.00;99.90;;;;;;4922981;29;20177;-91
2021/12/22 12:05:17;;;;;;;34.37;15.87;;;-1.00;99.90;;;;;;4939043;29;20276;-92
2021/12/22 12:07:53;;;;;;;40.60;18.67;;;-1.00;99.90;;;;;;4918531;29;20225;-93
2021/12/22 12:10:28;;;;;;;42.13;18.23;;;-1.00;99.90;;;;;;4938065;29;20203;-92
2021/12/22 12:13:00;;;;;;;38.17;18.77;;;-0.90;99.90;;;;;;4923070;29;20185;-92
2021/12/22 12:22:28;;;;;;;38.30;18.90;;;-0.70;99.90;;;;;;4939390;29;20190;-94
2021/12/22 12:25:02;;;;;;;40.07;18.20;;;-0.80;99.90;;;;;;4922178;29;20190;-95
2021/12/22 12:27:50;;;;;;;33.17;17.17;;;-0.70;99.90;;;;;;4938902;29;20632;-92
2021/12/22 12:30:43;;;;;;;36.37;18.30;;;-0.70;99.90;;;;;;4919991;29;20690;-93
2021/12/22 12:36:50;;;;;;;32.33;16.07;;;-0.60;99.90;;;;;;4920438;29;20277;-91
2021/12/22 12:39:57;;;;;;;34.97;16.47;;;-0.60;99.90;;;;;;4920707;29;20175;-92
2021/12/22 12:42:23;;;;;;;30.67;16.00;;;-0.70;99.90;;;;;;4919141;29;20526;-93
2021/12/22 12:44:49;;;;;;;32.37;16.57;;;-0.60;99.90;;;;;;4918572;29;20234;-92
2021/12/22 12:47:19;;;;;;;31.57;16.30;;;-0.60;99.90;;;;;;4919024;29;20684;-93
2021/12/22 12:49:45;;;;;;;32.57;16.37;;;-0.60;99.90;;;;;;4918823;29;20238;-91
2021/12/22 12:52:20;;;;;;;34.10;16.70;;;-0.60;99.90;;;;;;4918742;29;20269;-92
2021/12/22 12:54:48;;;;;;;32.70;16.27;;;-0.60;99.90;;;;;;4903017;29;20611;-93
2021/12/22 12:57:30;;;;;;;31.70;16.37;;;-0.60;99.90;;;;;;4926588;29;20360;-93
2021/12/22 13:00:23;;;;;;;32.93;16.33;;;-0.60;99.90;;;;;;4899029;29;20278;-92
2021/12/22 13:06:09;;;;;;;35.07;16.33;;;-0.50;99.90;;;;;;4889622;29;20289;-92
2021/12/22 13:08:37;;;;;;;30.00;15.40;;;-0.60;99.90;;;;;;4899306;29;20788;-92
2021/12/22 13:11:14;;;;;;;31.83;16.57;;;-0.60;99.90;;;;;;4899086;29;20189;-91
2021/12/22 13:16:49;;;;;;;31.37;15.53;;;-0.50;99.90;;;;;;4899298;29;20324;-93
2021/12/22 13:19:55;;;;;;;29.97;14.37;;;-0.50;99.90;;;;;;4899070;29;20187;-92
2021/12/22 13:22:38;;;;;;;26.10;14.60;;;-0.50;99.90;;;;;;4897779;29;20190;-92
2021/12/22 13:25:18;;;;;;;29.33;14.83;;;-0.50;99.90;;;;;;4898791;29;20205;-93
2021/12/22 13:27:51;;;;;;;27.70;14.60;;;-0.50;99.90;;;;;;4898643;29;20215;-92